sensor_id;sensor_type;location;lat;lon;timestamp;P1;durP1;ratioP1;P2;durP2;ratioP2
43809;SDS011;29440;48.208;11.162;2023-02-11T00:00:34;39.05;;;16.85;;
43809;SDS011;29440;48.208;11.162;2023-02-11T00:03:02;39.63;;;16.77;;
43809;SDS011;29440;48.208;11.162;2023-02-11T00:05:27;34.10;;;15.35;;
43809;SDS011;29440;48.208;11.162;2023-02-11T00:07:53;35.13;;;16.55;;
43809;SDS011;29440;48.208;11.162;2023-02-11T00:10:18;32.78;;;14.93;;
43809;SDS011;29440;48.208;11.162;2023-02-11T00:12:44;40.30;;;15.40;;
43809;SDS011;29440;48.208;11.162;2023-02-11T00:15:09;39.15;;;16.38;;
43809;SDS011;29440;48.208;11.162;2023-02-11T00:17:35;39.22;;;15.70;;
43809;SDS011;29440;48.208;11.162;2023-02-11T00:20:01;39.28;;;16.23;;
43809;SDS011;29440;48.208;11.162;2023-02-11T00:22:27;35.08;;;15.57;;
43809;SDS011;29440;48.208;11.162;2023-02-11T00:24:52;38.22;;;15.65;;
43809;SDS011;29440;48.208;11.162;2023-02-11T00:27:18;39.10;;;16.50;;
43809;SDS011;29440;48.208;11.162;2023-02-11T00:29:43;39.95;;;16.95;;
43809;SDS011;29440;48.208;11.162;2023-02-11T00:32:09;39.70;;;17.38;;
43809;SDS011;29440;48.208;11.162;2023-02-11T00:34:35;35.22;;;15.70;;
43809;SDS011;29440;48.208;11.162;2023-02-11T00:37:02;48.10;;;18.27;;
43809;SDS011;29440;48.208;11.162;2023-02-11T00:39:28;43.00;;;17.75;;
43809;SDS011;29440;48.208;11.162;2023-02-11T00:41:54;38.47;;;15.98;;
43809;SDS011;29440;48.208;11.162;2023-02-11T00:44:20;41.08;;;16.42;;
43809;SDS011;29440;48.208;11.162;2023-02-11T00:46:45;37.00;;;15.32;;
43809;SDS011;29440;48.208;11.162;2023-02-11T00:49:11;32.67;;;14.27;;
43809;SDS011;29440;48.208;11.162;2023-02-11T00:51:36;37.28;;;14.90;;
43809;SDS011;29440;48.208;11.162;2023-02-11T00:54:02;33.95;;;14.70;;
43809;SDS011;29440;48.208;11.162;2023-02-11T00:56:27;34.05;;;14.43;;
43809;SDS011;29440;48.208;11.162;2023-02-11T00:58:53;33.88;;;13.18;;
43809;SDS011;29440;48.208;11.162;2023-02-11T01:01:19;30.35;;;14.32;;
43809;SDS011;29440;48.208;11.162;2023-02-11T01:03:45;34.05;;;13.38;;
43809;SDS011;29440;48.208;11.162;2023-02-11T01:06:11;39.60;;;15.48;;
43809;SDS011;29440;48.208;11.162;2023-02-11T01:08:37;37.65;;;15.55;;
43809;SDS011;29440;48.208;11.162;2023-02-11T01:11:04;40.15;;;15.85;;
43809;SDS011;29440;48.208;11.162;2023-02-11T01:13:32;36.30;;;15.43;;
43809;SDS011;29440;48.208;11.162;2023-02-11T01:16:01;38.35;;;14.35;;
43809;SDS011;29440;48.208;11.162;2023-02-11T01:18:27;36.72;;;14.80;;
43809;SDS011;29440;48.208;11.162;2023-02-11T01:20:53;39.72;;;15.60;;
43809;SDS011;29440;48.208;11.162;2023-02-11T01:23:19;33.40;;;13.73;;
43809;SDS011;29440;48.208;11.162;2023-02-11T01:25:45;41.50;;;16.58;;
43809;SDS011;29440;48.208;11.162;2023-02-11T01:28:15;35.97;;;14.60;;
43809;SDS011;29440;48.208;11.162;2023-02-11T01:30:42;35.47;;;14.63;;
43809;SDS011;29440;48.208;11.162;2023-02-11T01:33:08;39.83;;;14.82;;
43809;SDS011;29440;48.208;11.162;2023-02-11T01:35:33;33.53;;;13.88;;
43809;SDS011;29440;48.208;11.162;2023-02-11T01:37:59;32.60;;;15.50;;
43809;SDS011;29440;48.208;11.162;2023-02-11T01:40:24;35.55;;;14.73;;
43809;SDS011;29440;48.208;11.162;2023-02-11T01:42:50;34.55;;;15.38;;
43809;SDS011;29440;48.208;11.162;2023-02-11T01:48:34;34.28;;;13.18;;
43809;SDS011;29440;48.208;11.162;2023-02-11T01:51:05;36.35;;;14.52;;
43809;SDS011;29440;48.208;11.162;2023-02-11T01:53:34;33.78;;;13.73;;
43809;SDS011;29440;48.208;11.162;2023-02-11T01:56:20;31.38;;;13.27;;
43809;SDS011;29440;48.208;11.162;2023-02-11T01:59:08;33.83;;;12.15;;
43809;SDS011;29440;48.208;11.162;2023-02-11T02:01:42;35.67;;;14.82;;
43809;SDS011;29440;48.208;11.162;2023-02-11T02:04:15;30.83;;;12.95;;
43809;SDS011;29440;48.208;11.162;2023-02-11T02:06:45;31.50;;;13.10;;
43809;SDS011;29440;48.208;11.162;2023-02-11T02:09:21;32.72;;;12.77;;
43809;SDS011;29440;48.208;11.162;2023-02-11T02:11:50;33.75;;;13.73;;
43809;SDS011;29440;48.208;11.162;2023-02-11T02:14:17;32.38;;;14.02;;
43809;SDS011;29440;48.208;11.162;2023-02-11T02:16:44;30.35;;;13.35;;
43809;SDS011;29440;48.208;11.162;2023-02-11T02:22:19;29.77;;;12.60;;
43809;SDS011;29440;48.208;11.162;2023-02-11T02:24:57;32.25;;;13.07;;
43809;SDS011;29440;48.208;11.162;2023-02-11T02:38:30;36.03;;;13.30;;
43809;SDS011;29440;48.208;11.162;2023-02-11T02:41:09;29.58;;;12.63;;
43809;SDS011;29440;48.208;11.162;2023-02-11T02:43:42;33.40;;;12.88;;
43809;SDS011;29440;48.208;11.162;2023-02-11T02:46:10;30.83;;;12.90;;
43809;SDS011;29440;48.208;11.162;2023-02-11T02:48:38;31.98;;;13.05;;
43809;SDS011;29440;48.208;11.162;2023-02-11T02:56:39;27.65;;;11.32;;
43809;SDS011;29440;48.208;11.162;2023-02-11T02:59:54;28.63;;;11.95;;
43809;SDS011;29440;48.208;11.162;2023-02-11T03:02:12;22.38;;;9.02;;
43809;SDS011;29440;48.208;11.162;2023-02-11T03:05:01;23.38;;;10.80;;
43809;SDS011;29440;48.208;11.162;2023-02-11T03:10:07;21.75;;;9.85;;
43809;SDS011;29440;48.208;11.162;2023-02-11T03:12:41;19.42;;;8.93;;
43809;SDS011;29440;48.208;11.162;2023-02-11T03:15:08;22.20;;;9.48;;
43809;SDS011;29440;48.208;11.162;2023-02-11T03:17:36;18.20;;;8.32;;
43809;SDS011;29440;48.208;11.162;2023-02-11T03:20:04;22.48;;;8.52;;
43809;SDS011;29440;48.208;11.162;2023-02-11T03:22:40;20.65;;;9.00;;
43809;SDS011;29440;48.208;11.162;2023-02-11T03:25:10;21.10;;;9.00;;
43809;SDS011;29440;48.208;11.162;2023-02-11T03:30:06;23.80;;;10.48;;
43809;SDS011;29440;48.208;11.162;2023-02-11T03:35:16;27.77;;;10.38;;
43809;SDS011;29440;48.208;11.162;2023-02-11T03:37:56;26.85;;;11.38;;
43809;SDS011;29440;48.208;11.162;2023-02-11T03:40:30;28.05;;;11.13;;
43809;SDS011;29440;48.208;11.162;2023-02-11T03:43:37;29.92;;;12.02;;
43809;SDS011;29440;48.208;11.162;2023-02-11T03:45:58;25.20;;;10.80;;
43809;SDS011;29440;48.208;11.162;2023-02-11T03:48:30;27.92;;;10.30;;
43809;SDS011;29440;48.208;11.162;2023-02-11T03:51:01;24.13;;;10.27;;
43809;SDS011;29440;48.208;11.162;2023-02-11T03:53:30;22.05;;;10.18;;
43809;SDS011;29440;48.208;11.162;2023-02-11T03:55:56;25.27;;;10.90;;
43809;SDS011;29440;48.208;11.162;2023-02-11T03:58:26;20.73;;;9.35;;
43809;SDS011;29440;48.208;11.162;2023-02-11T04:00:52;22.17;;;9.43;;
43809;SDS011;29440;48.208;11.162;2023-02-11T04:03:17;27.42;;;9.38;;
43809;SDS011;29440;48.208;11.162;2023-02-11T04:05:46;20.27;;;8.57;;
43809;SDS011;29440;48.208;11.162;2023-02-11T04:08:11;22.52;;;9.35;;
43809;SDS011;29440;48.208;11.162;2023-02-11T04:10:37;22.77;;;9.10;;
43809;SDS011;29440;48.208;11.162;2023-02-11T04:13:06;21.85;;;9.15;;
43809;SDS011;29440;48.208;11.162;2023-02-11T04:15:32;23.15;;;9.20;;
43809;SDS011;29440;48.208;11.162;2023-02-11T04:17:57;31.02;;;10.75;;
43809;SDS011;29440;48.208;11.162;2023-02-11T04:20:23;25.08;;;10.80;;
43809;SDS011;29440;48.208;11.162;2023-02-11T04:22:48;23.63;;;9.35;;
43809;SDS011;29440;48.208;11.162;2023-02-11T04:25:14;29.08;;;10.57;;
43809;SDS011;29440;48.208;11.162;2023-02-11T04:27:40;24.40;;;9.73;;
43809;SDS011;29440;48.208;11.162;2023-02-11T04:30:09;25.45;;;9.93;;
43809;SDS011;29440;48.208;11.162;2023-02-11T04:32:36;22.85;;;10.05;;
43809;SDS011;29440;48.208;11.162;2023-02-11T04:35:01;34.92;;;11.75;;
43809;SDS011;29440;48.208;11.162;2023-02-11T04:37:28;26.00;;;10.35;;
43809;SDS011;29440;48.208;11.162;2023-02-11T04:39:54;31.48;;;11.40;;
43809;SDS011;29440;48.208;11.162;2023-02-11T04:42:19;27.90;;;8.80;;
43809;SDS011;29440;48.208;11.162;2023-02-11T04:44:46;22.85;;;10.32;;
43809;SDS011;29440;48.208;11.162;2023-02-11T04:47:11;22.20;;;9.40;;
43809;SDS011;29440;48.208;11.162;2023-02-11T04:49:40;22.70;;;9.57;;
43809;SDS011;29440;48.208;11.162;2023-02-11T04:52:06;25.52;;;10.18;;
43809;SDS011;29440;48.208;11.162;2023-02-11T04:54:32;22.50;;;9.63;;
43809;SDS011;29440;48.208;11.162;2023-02-11T04:56:58;25.38;;;9.65;;
43809;SDS011;29440;48.208;11.162;2023-02-11T04:59:24;19.85;;;9.07;;
43809;SDS011;29440;48.208;11.162;2023-02-11T05:01:49;21.35;;;8.32;;
43809;SDS011;29440;48.208;11.162;2023-02-11T05:04:15;22.27;;;8.85;;
43809;SDS011;29440;48.208;11.162;2023-02-11T05:06:42;21.20;;;8.70;;
43809;SDS011;29440;48.208;11.162;2023-02-11T05:09:09;23.77;;;9.63;;
43809;SDS011;29440;48.208;11.162;2023-02-11T05:11:37;25.13;;;8.68;;
43809;SDS011;29440;48.208;11.162;2023-02-11T05:14:04;21.60;;;9.27;;
43809;SDS011;29440;48.208;11.162;2023-02-11T05:16:32;21.35;;;9.52;;
43809;SDS011;29440;48.208;11.162;2023-02-11T05:18:58;19.60;;;8.68;;
43809;SDS011;29440;48.208;11.162;2023-02-11T05:21:24;40.92;;;15.43;;
43809;SDS011;29440;48.208;11.162;2023-02-11T05:23:50;86.68;;;26.35;;
43809;SDS011;29440;48.208;11.162;2023-02-11T05:26:15;94.22;;;31.30;;
43809;SDS011;29440;48.208;11.162;2023-02-11T05:28:42;85.97;;;27.08;;
43809;SDS011;29440;48.208;11.162;2023-02-11T05:31:09;64.22;;;22.20;;
43809;SDS011;29440;48.208;11.162;2023-02-11T05:33:38;70.32;;;22.42;;
43809;SDS011;29440;48.208;11.162;2023-02-11T05:36:07;95.47;;;27.25;;
43809;SDS011;29440;48.208;11.162;2023-02-11T05:38:34;45.10;;;16.95;;
43809;SDS011;29440;48.208;11.162;2023-02-11T05:41:00;28.17;;;11.82;;
43809;SDS011;29440;48.208;11.162;2023-02-11T05:43:26;22.63;;;8.75;;
43809;SDS011;29440;48.208;11.162;2023-02-11T05:45:52;14.98;;;6.32;;
43809;SDS011;29440;48.208;11.162;2023-02-11T05:48:17;14.68;;;6.50;;
43809;SDS011;29440;48.208;11.162;2023-02-11T05:50:43;17.80;;;5.97;;
43809;SDS011;29440;48.208;11.162;2023-02-11T05:53:09;18.10;;;6.65;;
43809;SDS011;29440;48.208;11.162;2023-02-11T05:55:35;14.85;;;5.63;;
43809;SDS011;29440;48.208;11.162;2023-02-11T05:58:01;15.25;;;6.32;;
43809;SDS011;29440;48.208;11.162;2023-02-11T06:00:29;14.60;;;6.43;;
43809;SDS011;29440;48.208;11.162;2023-02-11T06:02:55;12.73;;;5.72;;
43809;SDS011;29440;48.208;11.162;2023-02-11T06:05:21;13.55;;;6.13;;
43809;SDS011;29440;48.208;11.162;2023-02-11T06:07:47;15.93;;;7.28;;
43809;SDS011;29440;48.208;11.162;2023-02-11T06:10:13;15.40;;;5.78;;
43809;SDS011;29440;48.208;11.162;2023-02-11T06:12:39;15.80;;;6.47;;
43809;SDS011;29440;48.208;11.162;2023-02-11T06:15:05;12.02;;;6.68;;
43809;SDS011;29440;48.208;11.162;2023-02-11T06:17:32;16.52;;;5.88;;
43809;SDS011;29440;48.208;11.162;2023-02-11T06:19:58;16.58;;;6.57;;
43809;SDS011;29440;48.208;11.162;2023-02-11T06:22:28;17.27;;;7.97;;
43809;SDS011;29440;48.208;11.162;2023-02-11T06:24:53;20.35;;;8.05;;
43809;SDS011;29440;48.208;11.162;2023-02-11T06:27:19;16.52;;;6.90;;
43809;SDS011;29440;48.208;11.162;2023-02-11T06:29:45;14.90;;;6.30;;
43809;SDS011;29440;48.208;11.162;2023-02-11T06:32:12;12.23;;;5.93;;
43809;SDS011;29440;48.208;11.162;2023-02-11T06:34:38;14.45;;;5.93;;
43809;SDS011;29440;48.208;11.162;2023-02-11T06:37:04;18.60;;;6.60;;
43809;SDS011;29440;48.208;11.162;2023-02-11T06:39:30;12.35;;;5.55;;
43809;SDS011;29440;48.208;11.162;2023-02-11T06:41:57;14.10;;;5.88;;
43809;SDS011;29440;48.208;11.162;2023-02-11T06:44:22;11.20;;;5.00;;
43809;SDS011;29440;48.208;11.162;2023-02-11T06:46:48;12.65;;;4.80;;
43809;SDS011;29440;48.208;11.162;2023-02-11T06:49:14;10.43;;;4.82;;
43809;SDS011;29440;48.208;11.162;2023-02-11T06:51:39;13.93;;;5.40;;
43809;SDS011;29440;48.208;11.162;2023-02-11T06:54:05;12.63;;;4.93;;
43809;SDS011;29440;48.208;11.162;2023-02-11T06:56:31;13.55;;;4.95;;
43809;SDS011;29440;48.208;11.162;2023-02-11T06:58:58;14.90;;;5.63;;
43809;SDS011;29440;48.208;11.162;2023-02-11T07:01:25;17.58;;;5.53;;
43809;SDS011;29440;48.208;11.162;2023-02-11T07:03:52;15.00;;;6.20;;
43809;SDS011;29440;48.208;11.162;2023-02-11T07:06:19;12.55;;;6.00;;
43809;SDS011;29440;48.208;11.162;2023-02-11T07:08:47;10.77;;;5.45;;
43809;SDS011;29440;48.208;11.162;2023-02-11T07:11:15;12.10;;;5.50;;
43809;SDS011;29440;48.208;11.162;2023-02-11T07:13:48;10.82;;;5.78;;
43809;SDS011;29440;48.208;11.162;2023-02-11T07:16:14;12.35;;;5.38;;
43809;SDS011;29440;48.208;11.162;2023-02-11T07:18:42;13.80;;;6.35;;
43809;SDS011;29440;48.208;11.162;2023-02-11T07:21:09;12.48;;;5.28;;
43809;SDS011;29440;48.208;11.162;2023-02-11T07:23:38;15.95;;;6.68;;
43809;SDS011;29440;48.208;11.162;2023-02-11T07:26:09;11.95;;;5.72;;
43809;SDS011;29440;48.208;11.162;2023-02-11T07:28:37;13.30;;;5.18;;
43809;SDS011;29440;48.208;11.162;2023-02-11T07:31:05;12.73;;;5.40;;
43809;SDS011;29440;48.208;11.162;2023-02-11T07:33:41;9.23;;;4.88;;
43809;SDS011;29440;48.208;11.162;2023-02-11T07:36:08;12.02;;;5.10;;
43809;SDS011;29440;48.208;11.162;2023-02-11T07:38:34;11.40;;;4.13;;
43809;SDS011;29440;48.208;11.162;2023-02-11T07:41:03;13.00;;;4.32;;
43809;SDS011;29440;48.208;11.162;2023-02-11T07:43:31;12.25;;;5.18;;
43809;SDS011;29440;48.208;11.162;2023-02-11T07:45:58;12.35;;;5.55;;
43809;SDS011;29440;48.208;11.162;2023-02-11T07:48:26;9.30;;;4.55;;
43809;SDS011;29440;48.208;11.162;2023-02-11T07:50:53;10.48;;;4.38;;
43809;SDS011;29440;48.208;11.162;2023-02-11T07:53:20;14.00;;;4.22;;
43809;SDS011;29440;48.208;11.162;2023-02-11T07:55:45;14.65;;;6.32;;
43809;SDS011;29440;48.208;11.162;2023-02-11T07:58:13;13.77;;;6.72;;
43809;SDS011;29440;48.208;11.162;2023-02-11T08:00:39;10.88;;;4.82;;
43809;SDS011;29440;48.208;11.162;2023-02-11T08:03:04;12.07;;;4.85;;
43809;SDS011;29440;48.208;11.162;2023-02-11T08:05:32;14.52;;;6.07;;
43809;SDS011;29440;48.208;11.162;2023-02-11T08:07:58;11.80;;;5.20;;
43809;SDS011;29440;48.208;11.162;2023-02-11T08:10:24;13.95;;;5.07;;
43809;SDS011;29440;48.208;11.162;2023-02-11T08:12:50;12.10;;;5.32;;
43809;SDS011;29440;48.208;11.162;2023-02-11T08:15:18;11.13;;;5.13;;
43809;SDS011;29440;48.208;11.162;2023-02-11T08:17:43;13.38;;;5.80;;
43809;SDS011;29440;48.208;11.162;2023-02-11T08:20:09;12.88;;;5.00;;
43809;SDS011;29440;48.208;11.162;2023-02-11T08:22:36;15.30;;;5.72;;
43809;SDS011;29440;48.208;11.162;2023-02-11T08:25:02;11.60;;;5.50;;
43809;SDS011;29440;48.208;11.162;2023-02-11T08:27:28;11.95;;;5.93;;
43809;SDS011;29440;48.208;11.162;2023-02-11T08:29:53;14.48;;;5.82;;
43809;SDS011;29440;48.208;11.162;2023-02-11T08:32:19;12.18;;;6.22;;
43809;SDS011;29440;48.208;11.162;2023-02-11T08:34:45;13.98;;;6.22;;
43809;SDS011;29440;48.208;11.162;2023-02-11T08:37:11;22.20;;;6.82;;
43809;SDS011;29440;48.208;11.162;2023-02-11T08:39:37;18.85;;;7.18;;
43809;SDS011;29440;48.208;11.162;2023-02-11T08:42:03;14.38;;;6.50;;
43809;SDS011;29440;48.208;11.162;2023-02-11T08:44:29;15.23;;;6.80;;
43809;SDS011;29440;48.208;11.162;2023-02-11T08:46:55;15.43;;;6.78;;
43809;SDS011;29440;48.208;11.162;2023-02-11T08:49:21;14.80;;;6.63;;
43809;SDS011;29440;48.208;11.162;2023-02-11T08:51:47;14.75;;;7.50;;
43809;SDS011;29440;48.208;11.162;2023-02-11T08:54:13;15.23;;;6.85;;
43809;SDS011;29440;48.208;11.162;2023-02-11T08:56:39;17.30;;;7.82;;
43809;SDS011;29440;48.208;11.162;2023-02-11T08:59:04;18.58;;;8.45;;
43809;SDS011;29440;48.208;11.162;2023-02-11T09:01:31;19.38;;;7.35;;
43809;SDS011;29440;48.208;11.162;2023-02-11T09:03:57;17.63;;;8.00;;
43809;SDS011;29440;48.208;11.162;2023-02-11T09:06:25;20.65;;;7.85;;
43809;SDS011;29440;48.208;11.162;2023-02-11T09:08:52;19.17;;;8.02;;
43809;SDS011;29440;48.208;11.162;2023-02-11T09:11:21;18.67;;;8.60;;
43809;SDS011;29440;48.208;11.162;2023-02-11T09:13:50;19.13;;;7.82;;
43809;SDS011;29440;48.208;11.162;2023-02-11T09:16:16;17.88;;;8.23;;
43809;SDS011;29440;48.208;11.162;2023-02-11T09:18:45;21.25;;;8.07;;
43809;SDS011;29440;48.208;11.162;2023-02-11T09:21:11;17.42;;;7.15;;
43809;SDS011;29440;48.208;11.162;2023-02-11T09:23:38;18.83;;;8.50;;
43809;SDS011;29440;48.208;11.162;2023-02-11T09:26:07;18.45;;;8.93;;
43809;SDS011;29440;48.208;11.162;2023-02-11T09:28:38;17.00;;;7.32;;
43809;SDS011;29440;48.208;11.162;2023-02-11T09:31:06;18.30;;;8.05;;
43809;SDS011;29440;48.208;11.162;2023-02-11T09:33:33;19.20;;;8.55;;
43809;SDS011;29440;48.208;11.162;2023-02-11T09:36:00;19.13;;;8.48;;
43809;SDS011;29440;48.208;11.162;2023-02-11T09:38:26;21.00;;;10.05;;
43809;SDS011;29440;48.208;11.162;2023-02-11T09:40:53;21.95;;;9.90;;
43809;SDS011;29440;48.208;11.162;2023-02-11T09:43:19;22.25;;;9.93;;
43809;SDS011;29440;48.208;11.162;2023-02-11T09:45:55;20.33;;;9.93;;
43809;SDS011;29440;48.208;11.162;2023-02-11T09:48:22;24.60;;;10.55;;
43809;SDS011;29440;48.208;11.162;2023-02-11T09:50:49;19.02;;;9.82;;
43809;SDS011;29440;48.208;11.162;2023-02-11T09:53:25;20.05;;;9.80;;
43809;SDS011;29440;48.208;11.162;2023-02-11T09:55:54;21.88;;;9.50;;
43809;SDS011;29440;48.208;11.162;2023-02-11T09:58:26;28.08;;;10.23;;
43809;SDS011;29440;48.208;11.162;2023-02-11T10:01:04;21.38;;;9.40;;
43809;SDS011;29440;48.208;11.162;2023-02-11T10:06:23;22.35;;;10.25;;
43809;SDS011;29440;48.208;11.162;2023-02-11T10:23:22;19.20;;;9.93;;
43809;SDS011;29440;48.208;11.162;2023-02-11T10:25:53;21.23;;;10.13;;
43809;SDS011;29440;48.208;11.162;2023-02-11T10:28:29;20.30;;;11.10;;
43809;SDS011;29440;48.208;11.162;2023-02-11T10:36:08;22.70;;;11.00;;
43809;SDS011;29440;48.208;11.162;2023-02-11T10:38:36;21.55;;;10.82;;
43809;SDS011;29440;48.208;11.162;2023-02-11T10:41:01;21.90;;;10.00;;
43809;SDS011;29440;48.208;11.162;2023-02-11T10:43:29;19.23;;;9.18;;
43809;SDS011;29440;48.208;11.162;2023-02-11T10:45:56;23.17;;;9.93;;
43809;SDS011;29440;48.208;11.162;2023-02-11T10:56:28;23.75;;;10.25;;
43809;SDS011;29440;48.208;11.162;2023-02-11T10:59:03;19.27;;;9.88;;
43809;SDS011;29440;48.208;11.162;2023-02-11T11:01:45;18.90;;;9.82;;
43809;SDS011;29440;48.208;11.162;2023-02-11T11:06:56;20.40;;;9.85;;
43809;SDS011;29440;48.208;11.162;2023-02-11T11:12:26;19.77;;;9.10;;
43809;SDS011;29440;48.208;11.162;2023-02-11T11:14:56;19.80;;;9.15;;
43809;SDS011;29440;48.208;11.162;2023-02-11T11:17:25;17.25;;;8.48;;
43809;SDS011;29440;48.208;11.162;2023-02-11T11:20:15;20.00;;;9.38;;
43809;SDS011;29440;48.208;11.162;2023-02-11T11:22:49;19.95;;;8.82;;
43809;SDS011;29440;48.208;11.162;2023-02-11T11:25:20;18.65;;;8.98;;
43809;SDS011;29440;48.208;11.162;2023-02-11T11:27:49;17.13;;;8.23;;
43809;SDS011;29440;48.208;11.162;2023-02-11T11:30:17;20.13;;;8.90;;
43809;SDS011;29440;48.208;11.162;2023-02-11T11:32:43;18.95;;;8.85;;
43809;SDS011;29440;48.208;11.162;2023-02-11T11:35:20;19.25;;;9.13;;
43809;SDS011;29440;48.208;11.162;2023-02-11T11:37:53;16.95;;;7.18;;
43809;SDS011;29440;48.208;11.162;2023-02-11T11:40:29;17.08;;;7.55;;
43809;SDS011;29440;48.208;11.162;2023-02-11T11:45:55;17.80;;;8.60;;
43809;SDS011;29440;48.208;11.162;2023-02-11T11:48:27;15.73;;;7.75;;
43809;SDS011;29440;48.208;11.162;2023-02-11T11:51:09;17.90;;;7.03;;
43809;SDS011;29440;48.208;11.162;2023-02-11T11:58:44;14.70;;;7.35;;
43809;SDS011;29440;48.208;11.162;2023-02-11T12:04:26;14.50;;;7.18;;
43809;SDS011;29440;48.208;11.162;2023-02-11T12:07:20;14.07;;;6.22;;
43809;SDS011;29440;48.208;11.162;2023-02-11T12:15:27;16.02;;;6.78;;
43809;SDS011;29440;48.208;11.162;2023-02-11T12:23:40;14.45;;;6.57;;
43809;SDS011;29440;48.208;11.162;2023-02-11T12:26:20;12.65;;;6.28;;
43809;SDS011;29440;48.208;11.162;2023-02-11T12:32:09;15.63;;;7.28;;
43809;SDS011;29440;48.208;11.162;2023-02-11T12:35:05;13.88;;;5.97;;
43809;SDS011;29440;48.208;11.162;2023-02-11T12:37:40;16.90;;;7.68;;
43809;SDS011;29440;48.208;11.162;2023-02-11T12:40:31;13.60;;;6.95;;
43809;SDS011;29440;48.208;11.162;2023-02-11T12:43:19;16.33;;;7.30;;
43809;SDS011;29440;48.208;11.162;2023-02-11T12:57:35;15.02;;;7.40;;
43809;SDS011;29440;48.208;11.162;2023-02-11T13:02:41;13.48;;;7.53;;
43809;SDS011;29440;48.208;11.162;2023-02-11T13:08:22;17.58;;;8.07;;
43809;SDS011;29440;48.208;11.162;2023-02-11T13:10:54;20.45;;;9.35;;
43809;SDS011;29440;48.208;11.162;2023-02-11T13:13:25;18.48;;;8.88;;
43809;SDS011;29440;48.208;11.162;2023-02-11T13:16:31;15.77;;;8.52;;
43809;SDS011;29440;48.208;11.162;2023-02-11T13:24:45;20.75;;;9.60;;
43809;SDS011;29440;48.208;11.162;2023-02-11T13:30:16;16.42;;;8.73;;
43809;SDS011;29440;48.208;11.162;2023-02-11T13:38:16;17.85;;;9.40;;
43809;SDS011;29440;48.208;11.162;2023-02-11T13:40:49;16.17;;;8.85;;
43809;SDS011;29440;48.208;11.162;2023-02-11T13:43:37;19.42;;;9.88;;
43809;SDS011;29440;48.208;11.162;2023-02-11T13:46:03;16.60;;;9.48;;
43809;SDS011;29440;48.208;11.162;2023-02-11T13:51:03;17.20;;;9.20;;
43809;SDS011;29440;48.208;11.162;2023-02-11T13:53:49;21.35;;;9.43;;
43809;SDS011;29440;48.208;11.162;2023-02-11T13:56:29;18.85;;;9.25;;
43809;SDS011;29440;48.208;11.162;2023-02-11T13:58:57;17.63;;;8.93;;
43809;SDS011;29440;48.208;11.162;2023-02-11T14:10:48;20.23;;;10.00;;
43809;SDS011;29440;48.208;11.162;2023-02-11T14:13:23;21.13;;;10.50;;
43809;SDS011;29440;48.208;11.162;2023-02-11T14:23:35;19.83;;;10.48;;
43809;SDS011;29440;48.208;11.162;2023-02-11T14:26:04;21.95;;;10.50;;
43809;SDS011;29440;48.208;11.162;2023-02-11T14:31:27;21.17;;;9.95;;
43809;SDS011;29440;48.208;11.162;2023-02-11T14:34:14;19.13;;;10.25;;
43809;SDS011;29440;48.208;11.162;2023-02-11T14:36:47;21.30;;;10.95;;
43809;SDS011;29440;48.208;11.162;2023-02-11T14:41:56;22.40;;;10.60;;
43809;SDS011;29440;48.208;11.162;2023-02-11T14:44:26;19.38;;;10.85;;
43809;SDS011;29440;48.208;11.162;2023-02-11T14:46:54;19.50;;;10.45;;
43809;SDS011;29440;48.208;11.162;2023-02-11T14:52:43;26.13;;;12.13;;
43809;SDS011;29440;48.208;11.162;2023-02-11T14:55:04;20.73;;;10.88;;
43809;SDS011;29440;48.208;11.162;2023-02-11T14:57:38;20.00;;;9.95;;
43809;SDS011;29440;48.208;11.162;2023-02-11T15:00:13;23.55;;;11.40;;
43809;SDS011;29440;48.208;11.162;2023-02-11T15:02:49;21.55;;;10.63;;
43809;SDS011;29440;48.208;11.162;2023-02-11T15:05:16;23.13;;;10.75;;
43809;SDS011;29440;48.208;11.162;2023-02-11T15:07:47;20.55;;;11.35;;
43809;SDS011;29440;48.208;11.162;2023-02-11T15:10:16;19.50;;;10.35;;
43809;SDS011;29440;48.208;11.162;2023-02-11T15:12:45;21.65;;;10.88;;
43809;SDS011;29440;48.208;11.162;2023-02-11T15:15:13;22.63;;;12.60;;
43809;SDS011;29440;48.208;11.162;2023-02-11T15:17:41;20.02;;;11.32;;
43809;SDS011;29440;48.208;11.162;2023-02-11T15:20:14;21.98;;;10.98;;
43809;SDS011;29440;48.208;11.162;2023-02-11T15:22:44;20.92;;;10.80;;
43809;SDS011;29440;48.208;11.162;2023-02-11T15:25:13;19.05;;;9.85;;
43809;SDS011;29440;48.208;11.162;2023-02-11T15:27:51;19.17;;;10.52;;
43809;SDS011;29440;48.208;11.162;2023-02-11T15:32:51;23.98;;;11.02;;
43809;SDS011;29440;48.208;11.162;2023-02-11T15:35:21;23.13;;;10.63;;
43809;SDS011;29440;48.208;11.162;2023-02-11T15:37:48;24.13;;;10.98;;
43809;SDS011;29440;48.208;11.162;2023-02-11T15:40:16;18.45;;;10.40;;
43809;SDS011;29440;48.208;11.162;2023-02-11T15:42:52;22.15;;;10.93;;
43809;SDS011;29440;48.208;11.162;2023-02-11T15:45:21;24.33;;;10.50;;
43809;SDS011;29440;48.208;11.162;2023-02-11T15:47:58;23.45;;;10.38;;
43809;SDS011;29440;48.208;11.162;2023-02-11T15:50:30;22.35;;;11.75;;
43809;SDS011;29440;48.208;11.162;2023-02-11T15:53:00;15.75;;;9.18;;
43809;SDS011;29440;48.208;11.162;2023-02-11T15:55:29;14.30;;;8.45;;
43809;SDS011;29440;48.208;11.162;2023-02-11T15:57:55;18.55;;;9.50;;
43809;SDS011;29440;48.208;11.162;2023-02-11T16:00:25;14.30;;;8.20;;
43809;SDS011;29440;48.208;11.162;2023-02-11T16:02:58;15.93;;;8.50;;
43809;SDS011;29440;48.208;11.162;2023-02-11T16:05:35;15.55;;;8.50;;
43809;SDS011;29440;48.208;11.162;2023-02-11T16:08:21;16.05;;;8.10;;
43809;SDS011;29440;48.208;11.162;2023-02-11T16:13:32;14.85;;;8.48;;
43809;SDS011;29440;48.208;11.162;2023-02-11T16:16:18;16.55;;;8.32;;
43809;SDS011;29440;48.208;11.162;2023-02-11T16:18:51;15.65;;;8.57;;
43809;SDS011;29440;48.208;11.162;2023-02-11T16:21:20;16.98;;;8.20;;
43809;SDS011;29440;48.208;11.162;2023-02-11T16:23:54;13.60;;;7.63;;
43809;SDS011;29440;48.208;11.162;2023-02-11T16:28:53;15.27;;;7.88;;
43809;SDS011;29440;48.208;11.162;2023-02-11T16:31:35;16.55;;;7.47;;
43809;SDS011;29440;48.208;11.162;2023-02-11T16:34:10;12.50;;;7.15;;
43809;SDS011;29440;48.208;11.162;2023-02-11T16:36:40;14.45;;;7.75;;
43809;SDS011;29440;48.208;11.162;2023-02-11T16:39:07;19.13;;;9.50;;
43809;SDS011;29440;48.208;11.162;2023-02-11T16:41:33;20.25;;;10.13;;
43809;SDS011;29440;48.208;11.162;2023-02-11T16:43:58;19.60;;;10.32;;
43809;SDS011;29440;48.208;11.162;2023-02-11T16:46:24;21.25;;;10.02;;
43809;SDS011;29440;48.208;11.162;2023-02-11T16:48:51;21.67;;;11.07;;
43809;SDS011;29440;48.208;11.162;2023-02-11T16:51:21;22.25;;;10.88;;
43809;SDS011;29440;48.208;11.162;2023-02-11T16:53:47;32.53;;;14.82;;
43809;SDS011;29440;48.208;11.162;2023-02-11T16:56:14;21.52;;;10.80;;
43809;SDS011;29440;48.208;11.162;2023-02-11T16:58:42;15.40;;;9.95;;
43809;SDS011;29440;48.208;11.162;2023-02-11T17:01:08;19.58;;;9.55;;
43809;SDS011;29440;48.208;11.162;2023-02-11T17:03:34;17.58;;;9.68;;
43809;SDS011;29440;48.208;11.162;2023-02-11T17:06:10;16.80;;;9.70;;
43809;SDS011;29440;48.208;11.162;2023-02-11T17:08:37;17.48;;;8.90;;